createdAt,value
2023-06-30T00:02:23.281Z,10.93
2023-06-30T00:04:50.086Z,11.83
2023-06-30T00:07:17.101Z,11.70
2023-06-30T00:09:44.153Z,10.60
2023-06-30T00:12:10.830Z,10.33
2023-06-30T00:14:37.361Z,10.40
2023-06-30T00:17:03.996Z,10.13
2023-06-30T00:19:30.509Z,10.00
2023-06-30T00:21:57.027Z,9.63
2023-06-30T00:24:23.999Z,11.40
2023-06-30T00:26:51.613Z,12.20
2023-06-30T00:29:18.212Z,12.20
2023-06-30T00:31:44.805Z,11.33
2023-06-30T00:34:11.981Z,12.07
2023-06-30T00:36:38.521Z,14.13
2023-06-30T00:39:05.160Z,12.83
2023-06-30T00:41:31.765Z,10.97
2023-06-30T00:43:59.401Z,12.87
2023-06-30T00:46:26.167Z,12.53
2023-06-30T00:48:52.724Z,13.40
2023-06-30T00:51:19.915Z,12.30
2023-06-30T00:53:46.579Z,12.30
2023-06-30T00:56:13.113Z,11.67
2023-06-30T00:58:39.692Z,10.77
2023-06-30T01:01:35.944Z,9.60
2023-06-30T01:04:20.823Z,9.27
2023-06-30T01:06:56.605Z,10.00
2023-06-30T01:09:28.544Z,11.53
2023-06-30T01:11:55.740Z,10.30
2023-06-30T01:14:23.601Z,11.43
2023-06-30T01:16:50.782Z,10.03
2023-06-30T01:19:25.890Z,11.80
2023-06-30T01:21:55.304Z,11.50
2023-06-30T01:24:25.748Z,13.80
2023-06-30T01:26:52.323Z,12.47
2023-06-30T01:29:19.047Z,10.80
2023-06-30T01:31:46.105Z,11.53
2023-06-30T01:34:12.733Z,11.97
2023-06-30T01:36:39.544Z,12.87
2023-06-30T01:39:09.398Z,14.03
2023-06-30T01:41:36.415Z,13.13
2023-06-30T01:44:03.591Z,12.87
2023-06-30T01:46:30.192Z,13.90
2023-06-30T01:48:57.303Z,13.20
2023-06-30T01:51:24.826Z,26.63
2023-06-30T01:53:51.458Z,31.97
2023-06-30T01:56:18.085Z,32.23
2023-06-30T01:58:44.913Z,25.93
2023-06-30T02:01:11.657Z,19.30
2023-06-30T02:03:38.404Z,17.73
2023-06-30T02:06:05.055Z,18.80
2023-06-30T02:08:31.738Z,16.50
2023-06-30T02:10:58.449Z,17.93
2023-06-30T02:13:25.085Z,19.20
2023-06-30T02:15:51.653Z,21.57
2023-06-30T02:18:18.510Z,18.73
2023-06-30T02:20:45.058Z,18.67
2023-06-30T02:23:11.779Z,19.07
2023-06-30T02:25:39.190Z,19.17
2023-06-30T02:28:06.784Z,19.73
2023-06-30T02:30:33.412Z,19.13
2023-06-30T02:32:59.975Z,20.13
2023-06-30T02:35:26.630Z,23.53
2023-06-30T02:37:54.162Z,21.43
2023-06-30T02:40:23.134Z,22.23
2023-06-30T02:42:49.682Z,22.20
2023-06-30T02:45:18.606Z,20.80
2023-06-30T02:47:45.648Z,24.83
2023-06-30T02:50:12.322Z,25.67
2023-06-30T02:52:40.692Z,24.80
2023-06-30T02:55:08.088Z,22.87
2023-06-30T02:57:34.736Z,22.17
2023-06-30T03:00:04.154Z,23.63
2023-06-30T03:02:31.910Z,21.77
2023-06-30T03:04:58.816Z,24.20
2023-06-30T03:07:27.607Z,28.60
2023-06-30T03:09:55.334Z,30.27
2023-06-30T03:12:22.178Z,31.43
2023-06-30T03:14:49.321Z,32.27
2023-06-30T03:17:16.105Z,28.60
2023-06-30T03:19:42.690Z,27.77
2023-06-30T03:22:09.289Z,27.17
2023-06-30T03:24:36.122Z,33.30
2023-06-30T03:27:02.916Z,41.70
2023-06-30T03:29:30.330Z,44.40
2023-06-30T03:31:57.579Z,32.37
2023-06-30T03:34:24.199Z,27.97
2023-06-30T03:36:51.319Z,20.57
2023-06-30T03:39:20.428Z,23.77
2023-06-30T03:41:47.847Z,22.37
2023-06-30T03:44:15.124Z,21.17
2023-06-30T03:46:41.883Z,22.30
2023-06-30T03:49:08.464Z,18.50
2023-06-30T03:51:37.795Z,22.43
2023-06-30T03:54:04.538Z,20.50
2023-06-30T03:56:31.116Z,22.03
2023-06-30T03:58:57.670Z,19.90
2023-06-30T04:01:24.399Z,21.10
2023-06-30T04:03:52.952Z,20.80
2023-06-30T04:06:19.651Z,21.13
2023-06-30T04:08:46.818Z,21.07
2023-06-30T04:11:13.384Z,20.77
2023-06-30T04:13:39.964Z,18.90
2023-06-30T04:16:06.562Z,20.33
2023-06-30T04:18:33.669Z,18.13
2023-06-30T04:21:00.246Z,18.60
2023-06-30T04:23:26.865Z,21.27
2023-06-30T04:25:53.427Z,19.73
2023-06-30T04:28:19.979Z,17.40
2023-06-30T04:30:46.553Z,18.87
2023-06-30T04:33:13.123Z,18.93
2023-06-30T04:35:39.708Z,19.53
2023-06-30T04:38:06.285Z,18.53
2023-06-30T04:40:32.869Z,20.20
2023-06-30T04:43:01.439Z,17.90
2023-06-30T04:45:28.309Z,18.97
2023-06-30T04:47:55.041Z,19.20
2023-06-30T04:50:24.185Z,23.37
2023-06-30T04:52:50.739Z,26.90
2023-06-30T04:55:17.358Z,34.43
2023-06-30T04:57:44.008Z,39.53
2023-06-30T05:00:10.988Z,42.73
2023-06-30T05:02:37.764Z,43.67
2023-06-30T05:05:04.505Z,41.30
2023-06-30T05:07:31.470Z,40.60
2023-06-30T05:09:58.041Z,37.77
2023-06-30T05:12:24.584Z,27.60
2023-06-30T05:14:51.430Z,26.90
2023-06-30T05:17:18.155Z,23.70
2023-06-30T05:19:45.117Z,23.60
2023-06-30T05:22:11.670Z,20.97
2023-06-30T05:24:38.268Z,16.33
2023-06-30T05:27:05.093Z,12.70
2023-06-30T05:29:33.052Z,12.10
2023-06-30T05:31:59.721Z,11.37
2023-06-30T05:34:26.525Z,11.83
2023-06-30T05:36:53.182Z,11.33
2023-06-30T05:39:19.740Z,11.90
2023-06-30T05:41:46.305Z,11.27
2023-06-30T05:44:12.870Z,11.63
2023-06-30T05:46:39.660Z,11.83
2023-06-30T05:49:06.785Z,13.50
2023-06-30T05:51:34.613Z,12.67
2023-06-30T05:54:02.327Z,11.60
2023-06-30T05:56:29.304Z,8.87
2023-06-30T05:58:56.128Z,8.97
2023-06-30T06:01:23.014Z,7.93
2023-06-30T06:03:49.778Z,6.63
2023-06-30T06:06:16.563Z,6.40
2023-06-30T06:08:43.871Z,6.30
2023-06-30T06:11:10.451Z,7.17
2023-06-30T06:13:37.861Z,5.57
2023-06-30T06:16:05.018Z,6.20
2023-06-30T06:18:31.749Z,7.10
2023-06-30T06:20:58.408Z,5.33
2023-06-30T06:23:25.459Z,6.60
2023-06-30T06:25:52.250Z,7.20
2023-06-30T06:28:18.811Z,5.83
2023-06-30T06:30:45.973Z,5.33
2023-06-30T06:33:12.484Z,4.20
2023-06-30T06:35:38.986Z,5.63
2023-06-30T06:38:05.777Z,5.20
2023-06-30T06:40:33.713Z,6.40
2023-06-30T06:43:00.339Z,5.10
2023-06-30T06:45:27.819Z,5.00
2023-06-30T06:48:13.108Z,4.00
2023-06-30T06:50:39.658Z,3.87
2023-06-30T06:53:06.182Z,2.07
2023-06-30T06:55:32.719Z,1.93
2023-06-30T06:57:59.247Z,2.20
2023-06-30T07:00:25.775Z,2.40
2023-06-30T07:02:53.093Z,2.40
2023-06-30T07:05:19.647Z,2.73
2023-06-30T07:07:46.320Z,2.60
2023-06-30T07:10:13.191Z,1.87
2023-06-30T07:12:39.768Z,2.40
2023-06-30T07:15:06.733Z,2.93
2023-06-30T07:17:33.391Z,1.80
2023-06-30T07:20:00.084Z,1.87
2023-06-30T07:22:26.631Z,2.33
2023-06-30T07:24:53.132Z,1.90
2023-06-30T07:27:19.667Z,1.80
2023-06-30T07:29:50.374Z,2.40
2023-06-30T07:32:17.026Z,2.70
2023-06-30T07:34:43.666Z,1.77
2023-06-30T07:37:10.231Z,1.53
2023-06-30T07:39:36.800Z,1.93
2023-06-30T07:42:03.587Z,2.57
2023-06-30T07:44:30.675Z,1.80
2023-06-30T07:46:58.280Z,2.13
2023-06-30T07:49:26.191Z,1.97
2023-06-30T07:51:52.879Z,2.03
2023-06-30T07:54:19.531Z,1.97
2023-06-30T07:56:47.005Z,1.43
2023-06-30T07:59:13.593Z,1.97
2023-06-30T08:01:40.078Z,1.87
2023-06-30T08:04:06.755Z,2.23
2023-06-30T08:06:33.559Z,1.97
2023-06-30T08:09:00.287Z,1.90
2023-06-30T08:11:26.847Z,1.90
2023-06-30T08:13:53.374Z,1.40
2023-06-30T08:16:20.331Z,1.90
2023-06-30T08:18:51.267Z,1.40
2023-06-30T08:21:18.885Z,1.63
2023-06-30T08:23:46.190Z,2.10
2023-06-30T08:26:12.777Z,1.60
2023-06-30T08:28:39.372Z,1.47
2023-06-30T08:31:05.970Z,1.60
2023-06-30T08:36:02.795Z,2.07
2023-06-30T08:38:29.455Z,1.77
2023-06-30T08:40:56.302Z,1.70
2023-06-30T08:43:26.169Z,1.60
2023-06-30T08:45:55.028Z,1.60
2023-06-30T08:48:21.834Z,2.00
2023-06-30T08:50:48.972Z,2.50
2023-06-30T08:53:18.596Z,1.57
2023-06-30T08:55:46.274Z,1.90
2023-06-30T08:58:24.309Z,1.83
2023-06-30T09:00:52.621Z,1.60
2023-06-30T09:03:19.946Z,1.67
2023-06-30T09:05:47.932Z,1.97
2023-06-30T09:08:19.615Z,1.40
2023-06-30T09:10:47.086Z,1.10
2023-06-30T09:13:14.168Z,2.07
2023-06-30T09:15:41.947Z,1.43
2023-06-30T09:18:08.908Z,1.00
2023-06-30T09:20:37.079Z,1.37
2023-06-30T09:23:05.406Z,1.67
2023-06-30T09:25:35.111Z,1.60
2023-06-30T09:28:07.161Z,1.37
2023-06-30T09:30:33.917Z,1.53
2023-06-30T09:33:01.022Z,1.30
2023-06-30T09:35:36.216Z,1.10
2023-06-30T09:38:03.288Z,1.53
2023-06-30T09:40:29.921Z,1.57
2023-06-30T09:42:56.485Z,1.40
2023-06-30T09:45:23.025Z,0.80
2023-06-30T09:47:53.712Z,1.40
2023-06-30T09:50:26.998Z,1.20
2023-06-30T09:52:53.484Z,1.10
2023-06-30T09:55:20.345Z,1.50
2023-06-30T09:57:47.443Z,1.33
2023-06-30T10:00:29.594Z,1.13
2023-06-30T10:03:03.950Z,1.80
2023-06-30T10:05:31.025Z,1.43
2023-06-30T10:07:58.941Z,1.83
2023-06-30T10:10:25.565Z,1.33
2023-06-30T10:12:52.492Z,1.30
2023-06-30T10:15:19.181Z,1.03
2023-06-30T10:17:46.504Z,1.80
2023-06-30T10:20:13.308Z,1.13
2023-06-30T10:22:39.902Z,1.70
2023-06-30T10:25:07.490Z,1.90
2023-06-30T10:27:35.958Z,2.20
2023-06-30T10:30:03.039Z,1.87
2023-06-30T10:32:30.506Z,1.30
2023-06-30T10:34:57.760Z,1.50
2023-06-30T10:37:24.323Z,1.93
2023-06-30T10:39:50.851Z,1.67
2023-06-30T10:42:19.916Z,1.50
2023-06-30T10:44:47.224Z,1.53
2023-06-30T10:47:15.110Z,2.10
2023-06-30T10:49:42.445Z,1.90
2023-06-30T10:52:10.140Z,1.63
2023-06-30T10:54:45.923Z,2.17
2023-06-30T10:57:15.658Z,1.90
2023-06-30T10:59:46.122Z,1.70
2023-06-30T11:02:18.834Z,2.20
2023-06-30T11:04:46.308Z,1.10
2023-06-30T11:07:26.289Z,1.80
2023-06-30T11:09:52.856Z,1.93
2023-06-30T11:12:19.838Z,1.83
2023-06-30T11:14:58.710Z,2.20
2023-06-30T11:17:29.146Z,2.40
2023-06-30T11:20:02.080Z,2.17
2023-06-30T11:22:32.098Z,1.93
2023-06-30T11:24:58.610Z,1.90
2023-06-30T11:27:29.240Z,1.60
2023-06-30T11:29:57.227Z,1.63
2023-06-30T11:32:30.844Z,2.10
2023-06-30T11:34:58.757Z,2.30
2023-06-30T11:37:26.126Z,2.27
2023-06-30T11:39:54.169Z,1.73
2023-06-30T11:42:21.171Z,2.37
2023-06-30T11:44:50.356Z,2.07
2023-06-30T11:47:18.119Z,2.90
2023-06-30T11:49:46.681Z,2.93
2023-06-30T11:52:15.070Z,2.53
2023-06-30T11:54:41.873Z,2.50
2023-06-30T11:57:08.999Z,2.97
2023-06-30T11:59:35.567Z,2.60
2023-06-30T12:02:04.053Z,1.97
2023-06-30T12:04:35.654Z,2.40
2023-06-30T12:07:04.434Z,2.37
2023-06-30T12:09:31.209Z,2.10
2023-06-30T12:11:57.838Z,2.57
2023-06-30T12:14:28.623Z,2.20
2023-06-30T12:16:55.581Z,3.10
2023-06-30T12:19:28.849Z,3.03
2023-06-30T12:21:56.825Z,2.43
2023-06-30T12:24:24.131Z,1.57
2023-06-30T12:26:51.206Z,2.40
2023-06-30T12:29:18.469Z,2.00
2023-06-30T12:31:48.737Z,2.33
2023-06-30T12:34:33.023Z,2.60
2023-06-30T12:36:59.894Z,1.97
2023-06-30T12:39:26.588Z,2.23
2023-06-30T12:41:53.262Z,1.70
2023-06-30T12:44:20.344Z,3.20
2023-06-30T12:46:58.483Z,1.93
2023-06-30T12:49:29.152Z,2.03
2023-06-30T12:52:01.734Z,2.63
2023-06-30T12:54:30.194Z,2.03
2023-06-30T12:56:56.914Z,2.27
2023-06-30T12:59:23.689Z,2.30
2023-06-30T13:01:51.303Z,3.07
2023-06-30T13:04:19.364Z,2.10
2023-06-30T13:06:46.436Z,2.30
2023-06-30T13:09:13.876Z,1.80
2023-06-30T13:11:41.345Z,2.87
2023-06-30T13:14:09.447Z,2.23
2023-06-30T13:16:38.841Z,1.70
2023-06-30T13:19:05.682Z,1.73
2023-06-30T13:21:32.835Z,1.90
2023-06-30T13:23:59.590Z,2.37
2023-06-30T13:26:27.176Z,2.43
2023-06-30T13:28:54.314Z,2.20
2023-06-30T13:31:23.611Z,1.97
2023-06-30T13:33:53.114Z,2.60
2023-06-30T13:36:21.477Z,2.80
2023-06-30T13:38:48.717Z,2.47
2023-06-30T13:41:16.302Z,2.20
2023-06-30T13:43:42.965Z,2.63
2023-06-30T13:46:11.382Z,1.80
2023-06-30T13:48:39.724Z,2.37
2023-06-30T13:51:06.333Z,1.97
2023-06-30T13:53:33.803Z,2.13
2023-06-30T13:56:01.470Z,2.37
2023-06-30T13:58:29.380Z,2.17
2023-06-30T14:00:56.855Z,2.00
2023-06-30T14:03:24.206Z,2.00
2023-06-30T14:05:53.437Z,2.30
2023-06-30T14:08:21.700Z,2.13
2023-06-30T14:10:48.706Z,2.33
2023-06-30T14:13:15.748Z,1.63
2023-06-30T14:15:42.607Z,2.23
2023-06-30T14:18:09.501Z,2.30
2023-06-30T14:20:36.300Z,2.67
2023-06-30T14:23:04.313Z,2.77
2023-06-30T14:25:30.940Z,3.67
2023-06-30T14:27:57.883Z,2.70
2023-06-30T14:30:29.732Z,2.53
2023-06-30T14:32:56.520Z,2.67
2023-06-30T14:35:23.581Z,2.40
2023-06-30T14:37:51.277Z,2.50
2023-06-30T14:40:18.485Z,1.70
2023-06-30T14:42:45.639Z,1.83
2023-06-30T14:45:12.638Z,2.10
2023-06-30T14:47:43.756Z,3.00
2023-06-30T14:50:11.622Z,2.70
2023-06-30T14:52:38.985Z,2.03
2023-06-30T14:55:07.928Z,2.30
2023-06-30T14:57:35.593Z,2.80
2023-06-30T15:00:04.441Z,2.43
2023-06-30T15:02:33.298Z,2.20
2023-06-30T15:05:01.670Z,2.20
2023-06-30T15:07:29.717Z,2.50
2023-06-30T15:09:57.571Z,2.07
2023-06-30T15:12:25.764Z,2.70
2023-06-30T15:14:53.652Z,2.37
2023-06-30T15:17:20.712Z,2.50
2023-06-30T15:19:49.405Z,2.50
2023-06-30T15:22:18.734Z,2.27
2023-06-30T15:24:46.258Z,2.13
2023-06-30T15:27:13.812Z,2.10
2023-06-30T15:29:41.236Z,2.67
2023-06-30T15:32:08.679Z,2.97
2023-06-30T15:34:35.783Z,3.03
2023-06-30T15:37:04.708Z,2.53
2023-06-30T15:39:31.955Z,2.50
2023-06-30T15:41:59.432Z,2.63
2023-06-30T15:44:26.309Z,2.33
2023-06-30T15:46:55.400Z,2.47
2023-06-30T15:49:22.664Z,2.80
2023-06-30T15:51:52.616Z,2.27
2023-06-30T15:54:19.487Z,1.80
2023-06-30T15:56:47.359Z,2.40
2023-06-30T15:59:14.561Z,2.20
2023-06-30T16:01:41.766Z,2.77
2023-06-30T16:04:09.862Z,1.87
2023-06-30T16:06:37.446Z,2.30
2023-06-30T16:09:05.266Z,2.50
2023-06-30T16:11:33.553Z,3.30
2023-06-30T16:14:01.152Z,2.73
2023-06-30T16:16:28.367Z,2.60
2023-06-30T16:18:56.231Z,2.70
2023-06-30T16:21:24.643Z,2.90
2023-06-30T16:23:52.873Z,3.27
2023-06-30T16:26:21.694Z,2.13
2023-06-30T16:28:50.745Z,3.20
2023-06-30T16:31:18.108Z,2.47
2023-06-30T16:33:45.071Z,2.47
2023-06-30T16:36:12.391Z,3.83
2023-06-30T16:38:42.484Z,2.27
2023-06-30T16:41:10.032Z,2.47
2023-06-30T16:43:38.502Z,2.73
2023-06-30T16:46:06.494Z,2.50
2023-06-30T16:48:34.672Z,3.47
2023-06-30T16:51:01.788Z,2.37
2023-06-30T16:53:29.915Z,2.50
2023-06-30T16:56:00.147Z,3.10
2023-06-30T16:58:27.838Z,2.60
2023-06-30T17:00:55.591Z,2.77
2023-06-30T17:03:25.598Z,2.23
2023-06-30T17:05:55.806Z,2.23
2023-06-30T17:08:25.318Z,2.37
2023-06-30T17:10:54.449Z,3.00
2023-06-30T17:13:22.778Z,2.90
2023-06-30T17:15:50.600Z,2.43
2023-06-30T17:18:17.671Z,2.10
2023-06-30T17:20:45.764Z,2.10
2023-06-30T17:23:13.935Z,2.40
2023-06-30T17:25:41.518Z,2.60
2023-06-30T17:28:08.697Z,2.50
2023-06-30T17:30:35.865Z,2.83
2023-06-30T17:33:04.145Z,2.30
2023-06-30T17:35:32.598Z,2.40
2023-06-30T17:38:02.917Z,2.70
2023-06-30T17:40:31.197Z,2.67
2023-06-30T17:42:59.338Z,2.70
2023-06-30T17:45:26.877Z,2.03
2023-06-30T17:47:56.023Z,2.77
2023-06-30T17:50:27.414Z,2.17
2023-06-30T17:52:54.333Z,2.80
2023-06-30T17:55:23.420Z,2.53
2023-06-30T17:57:50.174Z,2.30
2023-06-30T18:00:20.074Z,2.30
2023-06-30T18:02:48.491Z,2.07
2023-06-30T18:05:16.673Z,2.13
2023-06-30T18:07:44.487Z,2.23
2023-06-30T18:10:15.269Z,2.00
2023-06-30T18:12:42.190Z,2.33
2023-06-30T18:15:10.237Z,2.23
2023-06-30T18:17:38.080Z,2.60
2023-06-30T18:20:06.960Z,2.77
2023-06-30T18:22:34.436Z,2.50
2023-06-30T18:25:01.990Z,2.60
2023-06-30T18:27:31.204Z,2.57
2023-06-30T18:29:58.350Z,2.40
2023-06-30T18:32:25.498Z,2.57
2023-06-30T18:34:54.089Z,1.90
2023-06-30T18:37:21.588Z,3.07
2023-06-30T18:39:48.443Z,2.40
2023-06-30T18:42:15.916Z,2.97
2023-06-30T18:44:43.130Z,2.80
2023-06-30T18:47:10.818Z,3.00
2023-06-30T18:49:37.778Z,3.03
2023-06-30T18:52:19.588Z,3.00
2023-06-30T18:54:48.755Z,2.43
2023-06-30T18:57:27.782Z,2.90
2023-06-30T18:59:58.630Z,2.90
2023-06-30T19:02:32.691Z,2.90
2023-06-30T19:05:01.554Z,2.90
2023-06-30T19:07:29.548Z,2.80
2023-06-30T19:09:57.566Z,3.10
2023-06-30T19:12:24.523Z,3.00
2023-06-30T19:14:51.591Z,3.07
2023-06-30T19:17:19.802Z,3.13
2023-06-30T19:19:46.989Z,2.70
2023-06-30T19:22:14.760Z,3.10
2023-06-30T19:24:42.258Z,3.23
2023-06-30T19:27:10.521Z,3.30
2023-06-30T19:29:44.034Z,2.87
2023-06-30T19:32:12.533Z,3.10
2023-06-30T19:34:42.905Z,3.13
2023-06-30T19:37:11.829Z,2.80
2023-06-30T19:39:39.521Z,3.20
2023-06-30T19:42:07.490Z,3.23
2023-06-30T19:44:34.521Z,3.80
2023-06-30T19:47:02.595Z,4.03
2023-06-30T19:49:31.821Z,3.47
2023-06-30T19:51:59.437Z,4.40
2023-06-30T19:54:27.615Z,4.03
2023-06-30T19:56:55.494Z,4.10
2023-06-30T19:59:25.079Z,3.40
2023-06-30T20:01:55.704Z,3.70
2023-06-30T20:04:24.509Z,3.60
2023-06-30T20:06:51.525Z,4.20
2023-06-30T20:09:19.908Z,3.00
2023-06-30T20:11:46.459Z,3.37
2023-06-30T20:14:14.534Z,3.60
2023-06-30T20:16:42.456Z,3.20
2023-06-30T20:19:09.545Z,2.80
2023-06-30T20:21:36.502Z,3.20
2023-06-30T20:24:03.305Z,4.50
2023-06-30T20:26:30.743Z,3.37
2023-06-30T20:28:57.909Z,3.60
2023-06-30T20:31:26.102Z,4.20
2023-06-30T20:33:53.419Z,4.80
2023-06-30T20:36:20.297Z,4.10
2023-06-30T20:38:47.932Z,4.50
2023-06-30T20:41:15.298Z,4.50
2023-06-30T20:43:42.608Z,3.30
2023-06-30T20:46:09.823Z,4.00
2023-06-30T20:48:36.733Z,4.33
2023-06-30T20:51:03.615Z,4.20
2023-06-30T20:53:31.821Z,5.20
2023-06-30T20:56:00.103Z,5.60
2023-06-30T20:58:28.336Z,3.80
2023-06-30T21:00:56.618Z,4.90
2023-06-30T21:03:24.143Z,5.00
2023-06-30T21:05:52.201Z,4.40
2023-06-30T21:08:19.267Z,5.63
2023-06-30T21:10:46.702Z,5.10
2023-06-30T21:13:14.061Z,4.40
2023-06-30T21:15:41.013Z,4.80
2023-06-30T21:18:08.126Z,5.37
2023-06-30T21:20:34.998Z,6.10
2023-06-30T21:23:01.683Z,5.27
2023-06-30T21:25:29.660Z,4.50
2023-06-30T21:27:57.333Z,4.77
2023-06-30T21:30:24.618Z,5.03
2023-06-30T21:32:51.496Z,4.10
2023-06-30T21:35:18.236Z,4.70
2023-06-30T21:37:45.332Z,4.20
2023-06-30T21:40:14.427Z,4.17
2023-06-30T21:42:41.430Z,4.57
2023-06-30T21:45:08.662Z,4.37
2023-06-30T21:47:36.010Z,4.80
2023-06-30T21:50:04.456Z,5.80
2023-06-30T21:52:33.180Z,4.50
2023-06-30T21:55:00.169Z,5.10
2023-06-30T21:57:27.891Z,4.87
2023-06-30T21:59:55.602Z,4.10
2023-06-30T22:02:23.805Z,3.90
2023-06-30T22:04:52.515Z,4.57
2023-06-30T22:07:21.249Z,4.70
2023-06-30T22:09:48.574Z,5.50
2023-06-30T22:12:18.228Z,4.37
2023-06-30T22:14:46.700Z,4.53
2023-06-30T22:17:13.669Z,4.23
2023-06-30T22:19:41.506Z,4.47
2023-06-30T22:22:09.517Z,4.30
2023-06-30T22:24:37.469Z,5.37
2023-06-30T22:27:04.720Z,4.97
2023-06-30T22:29:32.284Z,5.80
2023-06-30T22:31:59.348Z,5.40
2023-06-30T22:34:26.098Z,5.13
2023-06-30T22:36:52.905Z,5.50
2023-06-30T22:39:20.322Z,5.10
2023-06-30T22:41:47.723Z,4.23
2023-06-30T22:44:15.667Z,6.00
2023-06-30T22:46:44.484Z,4.87
2023-06-30T22:49:12.726Z,5.37
2023-06-30T22:51:40.030Z,5.20
2023-06-30T22:54:07.687Z,4.50
2023-06-30T22:56:34.426Z,4.47
2023-06-30T22:59:01.342Z,4.87
2023-06-30T23:01:29.282Z,4.50
2023-06-30T23:03:58.033Z,5.40
2023-06-30T23:06:25.442Z,4.47
2023-06-30T23:08:53.723Z,4.07
2023-06-30T23:11:21.224Z,3.87
2023-06-30T23:13:50.222Z,4.60
2023-06-30T23:16:17.434Z,4.47
2023-06-30T23:18:45.028Z,4.50
2023-06-30T23:21:12.029Z,3.63
2023-06-30T23:23:43.176Z,4.23
2023-06-30T23:26:13.717Z,4.03
2023-06-30T23:28:49.909Z,3.77
2023-06-30T23:31:24.865Z,3.57
2023-06-30T23:33:54.775Z,3.60
2023-06-30T23:36:22.873Z,3.67
2023-06-30T23:38:51.211Z,3.27
2023-06-30T23:41:20.278Z,3.63
2023-06-30T23:43:47.694Z,3.37
2023-06-30T23:46:19.266Z,3.97
2023-06-30T23:48:47.641Z,4.53
2023-06-30T23:51:14.947Z,3.20
2023-06-30T23:53:41.977Z,3.30
2023-06-30T23:56:09.019Z,3.23
2023-06-30T23:58:36.432Z,4.00
